createdAt,value
2022-09-01T00:04:13.554Z,66.30
2022-09-01T00:08:49.023Z,66.50
2022-09-01T00:13:23.096Z,66.60
2022-09-01T00:17:57.487Z,66.60
2022-09-01T00:22:33.745Z,66.70
2022-09-01T00:27:09.461Z,66.60
2022-09-01T00:31:43.830Z,66.60
2022-09-01T00:36:19.121Z,66.60
2022-09-01T00:40:53.944Z,66.70
2022-09-01T00:45:30.896Z,66.80
2022-09-01T00:50:08.442Z,67.10
2022-09-01T00:54:48.960Z,67.20
2022-09-01T00:59:24.791Z,67.50
2022-09-01T01:09:00.853Z,68.00
2022-09-01T01:13:49.376Z,68.20
2022-09-01T01:18:23.795Z,68.50
2022-09-01T01:23:08.952Z,68.80
2022-09-01T01:27:45.444Z,69.10
2022-09-01T01:32:19.493Z,69.30
2022-09-01T01:36:54.052Z,69.60
2022-09-01T01:41:28.056Z,69.90
2022-09-01T01:46:06.103Z,70.40
2022-09-01T01:50:48.953Z,70.80
2022-09-01T01:55:27.829Z,71.20
2022-09-01T02:00:05.203Z,71.60
2022-09-01T02:04:47.511Z,71.80
2022-09-01T02:09:23.537Z,72.20
2022-09-01T02:13:58.355Z,72.50
2022-09-01T02:18:36.022Z,72.80
2022-09-01T02:23:12.383Z,73.00
2022-09-01T02:27:49.406Z,73.30
2022-09-01T02:32:23.919Z,73.60
2022-09-01T02:36:59.345Z,73.90
2022-09-01T02:41:34.783Z,74.20
2022-09-01T02:46:09.289Z,74.60
2022-09-01T02:50:43.495Z,74.70
2022-09-01T02:55:22.754Z,75.10
2022-09-01T02:59:58.994Z,75.50
2022-09-01T03:04:35.276Z,75.80
2022-09-01T03:09:13.594Z,76.10
2022-09-01T03:13:48.089Z,76.30
2022-09-01T03:18:23.470Z,76.60
2022-09-01T03:22:58.032Z,77.10
2022-09-01T03:27:33.522Z,77.60
2022-09-01T03:32:07.829Z,78.10
2022-09-01T03:36:50.322Z,78.40
2022-09-01T03:41:33.467Z,78.90
2022-09-01T03:46:09.994Z,79.20
2022-09-01T03:50:46.284Z,79.50
2022-09-01T03:55:24.426Z,79.90
2022-09-01T03:59:59.111Z,80.40
2022-09-01T04:04:33.181Z,80.80
2022-09-01T04:09:07.615Z,81.30
2022-09-01T04:13:43.978Z,81.70
2022-09-01T04:18:21.695Z,82.10
2022-09-01T04:22:57.969Z,82.50
2022-09-01T04:27:33.846Z,82.80
2022-09-01T04:32:12.955Z,83.10
2022-09-01T04:36:54.555Z,83.50
2022-09-01T04:41:32.084Z,83.80
2022-09-01T04:46:08.835Z,84.20
2022-09-01T04:50:45.028Z,85.90
2022-09-01T04:55:28.734Z,85.60
2022-09-01T05:00:03.496Z,82.80
2022-09-01T05:04:44.949Z,79.60
2022-09-01T05:09:22.131Z,75.80
2022-09-01T05:14:04.852Z,72.90
2022-09-01T05:18:39.794Z,70.20
2022-09-01T05:23:14.232Z,68.00
2022-09-01T05:27:51.088Z,65.50
2022-09-01T05:32:27.561Z,64.20
2022-09-01T05:37:01.959Z,64.40
2022-09-01T05:41:37.217Z,64.20
2022-09-01T05:46:16.455Z,64.50
2022-09-01T05:50:52.457Z,64.40
2022-09-01T05:55:27.681Z,65.30
2022-09-01T06:00:10.931Z,66.50
2022-09-01T06:04:48.070Z,67.70
2022-09-01T06:09:31.480Z,68.90
2022-09-01T06:14:11.159Z,69.00
2022-09-01T06:18:45.616Z,69.10
2022-09-01T06:23:24.914Z,67.60
2022-09-01T06:28:00.808Z,66.50
2022-09-01T06:32:38.550Z,66.80
2022-09-01T06:37:13.954Z,66.70
2022-09-01T06:41:53.452Z,67.10
2022-09-01T06:46:31.962Z,67.80
2022-09-01T06:51:20.139Z,65.70
2022-09-01T06:55:56.950Z,65.50
2022-09-01T07:00:32.554Z,64.70
2022-09-01T07:05:09.307Z,64.40
2022-09-01T07:10:18.675Z,63.40
2022-09-01T07:20:24.649Z,52.00
2022-09-01T07:25:11.723Z,49.40
2022-09-01T07:30:01.685Z,46.60
2022-09-01T07:34:39.540Z,47.20
2022-09-01T07:44:30.823Z,49.40
2022-09-01T07:49:35.456Z,50.70
2022-09-01T07:54:18.746Z,52.10
2022-09-01T07:58:54.632Z,52.80
2022-09-01T08:03:31.277Z,53.30
2022-09-01T08:08:18.666Z,53.50
2022-09-01T08:12:57.780Z,53.60
2022-09-01T08:17:50.218Z,53.70
2022-09-01T08:22:25.615Z,53.00
2022-09-01T08:27:09.092Z,51.70
2022-09-01T08:31:44.892Z,50.70
2022-09-01T08:36:23.808Z,49.00
2022-09-01T08:41:01.243Z,48.80
2022-09-01T08:45:49.831Z,48.50
2022-09-01T08:50:26.128Z,46.80
2022-09-01T08:55:39.347Z,45.60
2022-09-01T09:00:20.237Z,43.60
2022-09-01T09:05:15.449Z,41.00
2022-09-01T09:09:57.936Z,39.60
2022-09-01T09:14:46.835Z,37.80
2022-09-01T09:19:23.920Z,35.80
2022-09-01T09:24:05.188Z,36.20
2022-09-01T09:28:41.475Z,36.50
2022-09-01T09:33:51.361Z,35.60
2022-09-01T09:38:30.325Z,36.00
2022-09-01T09:43:08.375Z,36.30
2022-09-01T09:47:46.660Z,37.30
2022-09-01T09:52:24.430Z,36.90
2022-09-01T09:57:13.341Z,36.10
2022-09-01T10:01:51.290Z,35.40
2022-09-01T10:06:35.592Z,34.30
2022-09-01T10:11:09.711Z,33.80
2022-09-01T10:15:51.226Z,33.20
2022-09-01T10:20:28.097Z,32.40
2022-09-01T10:25:05.447Z,32.20
2022-09-01T10:29:47.979Z,31.80
2022-09-01T10:34:24.205Z,31.00
2022-09-01T10:39:04.964Z,30.80
2022-09-01T10:43:44.120Z,30.40
2022-09-01T10:48:32.130Z,28.90
2022-09-01T10:53:08.445Z,29.40
2022-09-01T10:57:51.369Z,29.80
2022-09-01T11:02:34.510Z,30.40
2022-09-01T11:07:50.526Z,27.20
2022-09-01T11:12:47.336Z,28.00
2022-09-01T11:17:24.113Z,28.80
2022-09-01T11:22:26.637Z,29.10
2022-09-01T11:27:00.822Z,29.70
2022-09-01T11:31:42.634Z,28.70
2022-09-01T11:36:25.523Z,29.70
2022-09-01T11:41:00.868Z,30.90
2022-09-01T11:45:43.270Z,32.30
2022-09-01T11:50:21.209Z,33.90
2022-09-01T11:54:55.547Z,35.10
2022-09-01T11:59:36.361Z,36.30
2022-09-01T12:04:23.249Z,37.30
2022-09-01T12:08:59.041Z,38.00
2022-09-01T12:13:33.440Z,38.90
2022-09-01T12:18:15.246Z,38.70
2022-09-01T12:22:49.680Z,39.50
2022-09-01T12:27:24.369Z,40.10
2022-09-01T12:31:58.617Z,39.70
2022-09-01T12:36:36.305Z,38.90
2022-09-01T12:41:32.668Z,38.30
2022-09-01T12:46:10.872Z,38.60
2022-09-01T12:50:47.064Z,37.90
2022-09-01T13:00:21.611Z,36.70
2022-09-01T13:04:55.634Z,36.60
2022-09-01T13:09:30.117Z,36.00
2022-09-01T13:14:05.724Z,35.20
2022-09-01T13:23:34.952Z,34.80
2022-09-01T13:28:10.856Z,34.60
2022-09-01T13:37:41.864Z,35.10
2022-09-01T13:42:16.382Z,35.00
2022-09-01T13:51:51.706Z,35.70
2022-09-01T13:56:25.777Z,35.60
2022-09-01T14:01:00.258Z,35.80
2022-09-01T14:05:36.764Z,35.70
2022-09-01T14:10:13.613Z,36.30
2022-09-01T14:19:42.183Z,37.10
2022-09-01T14:24:21.081Z,37.50
2022-09-01T14:28:56.588Z,37.70
2022-09-01T14:33:31.247Z,37.80
2022-09-01T14:38:07.678Z,37.30
2022-09-01T14:42:43.773Z,37.40
2022-09-01T14:47:19.872Z,37.00
2022-09-01T14:52:11.523Z,37.70
2022-09-01T14:57:28.746Z,37.40
2022-09-01T15:01:40.010Z,36.50
2022-09-01T15:06:17.099Z,36.90
2022-09-01T15:10:51.280Z,37.10
2022-09-01T15:15:26.413Z,36.80
2022-09-01T15:20:22.272Z,37.80
2022-09-01T15:24:57.587Z,38.00
2022-09-01T15:29:34.215Z,37.70
2022-09-01T15:34:08.467Z,38.00
2022-09-01T15:38:42.755Z,38.10
2022-09-01T15:43:21.327Z,38.40
2022-09-01T15:47:55.586Z,38.10
2022-09-01T15:52:29.915Z,38.70
2022-09-01T15:57:04.002Z,39.60
2022-09-01T16:01:41.684Z,39.90
2022-09-01T16:06:15.723Z,40.20
2022-09-01T16:10:49.679Z,40.30
2022-09-01T16:15:26.861Z,40.20
2022-09-01T16:20:09.098Z,40.80
2022-09-01T16:24:45.581Z,41.00
2022-09-01T16:29:25.860Z,41.30
2022-09-01T16:34:02.932Z,41.50
2022-09-01T16:38:47.592Z,42.20
2022-09-01T16:43:31.659Z,42.60
2022-09-01T16:48:14.427Z,42.90
2022-09-01T16:53:05.671Z,43.20
2022-09-01T16:57:48.390Z,43.30
2022-09-01T17:02:35.797Z,43.70
2022-09-01T17:07:16.043Z,43.90
2022-09-01T17:11:54.293Z,44.30
2022-09-01T17:16:37.048Z,44.70
2022-09-01T17:21:16.278Z,44.70
2022-09-01T17:25:54.107Z,45.00
2022-09-01T17:30:30.743Z,45.40
2022-09-01T17:35:15.039Z,46.10
2022-09-01T17:39:59.291Z,47.20
2022-09-01T17:44:43.177Z,48.20
2022-09-01T17:49:36.917Z,48.80
2022-09-01T17:54:33.117Z,49.70
2022-09-01T17:59:20.904Z,50.50
2022-09-01T18:04:21.040Z,51.10
2022-09-01T18:08:58.242Z,51.60
2022-09-01T18:13:52.808Z,52.10
2022-09-01T18:18:57.381Z,52.80
2022-09-01T18:23:38.702Z,53.30
2022-09-01T18:28:15.531Z,53.80
2022-09-01T18:32:58.025Z,54.00
2022-09-01T18:37:44.537Z,54.60
2022-09-01T18:42:25.435Z,55.00
2022-09-01T18:47:02.674Z,55.30
2022-09-01T18:51:54.447Z,55.50
2022-09-01T18:56:42.499Z,55.60
2022-09-01T19:01:25.945Z,55.70
2022-09-01T19:06:12.777Z,55.70
2022-09-01T19:10:58.736Z,56.20
2022-09-01T19:15:38.504Z,56.70
2022-09-01T19:20:23.366Z,57.00
2022-09-01T19:25:22.473Z,57.50
2022-09-01T19:30:04.070Z,57.90
2022-09-01T19:34:41.330Z,58.50
2022-09-01T19:39:18.046Z,58.80
2022-09-01T19:43:58.989Z,59.40
2022-09-01T19:48:38.189Z,60.00
2022-09-01T19:53:27.080Z,60.10
2022-09-01T19:58:05.104Z,60.20
2022-09-01T20:02:49.500Z,60.10
2022-09-01T20:07:31.622Z,60.50
2022-09-01T20:12:19.487Z,60.70
2022-09-01T20:16:58.678Z,61.20
2022-09-01T20:21:42.835Z,61.60
2022-09-01T20:26:23.303Z,61.90
2022-09-01T20:31:03.195Z,62.10
2022-09-01T20:35:41.997Z,62.50
2022-09-01T20:40:29.981Z,63.30
2022-09-01T20:45:12.303Z,63.50
2022-09-01T20:49:46.598Z,63.70
2022-09-01T20:54:34.853Z,63.90
2022-09-01T20:59:20.537Z,64.50
2022-09-01T21:04:05.845Z,65.00
2022-09-01T21:08:49.274Z,65.20
2022-09-01T21:13:39.056Z,65.40
2022-09-01T21:18:38.684Z,65.80
2022-09-01T21:23:16.229Z,66.00
2022-09-01T21:27:55.656Z,66.30
2022-09-01T21:32:30.692Z,66.50
2022-09-01T21:37:05.116Z,66.70
2022-09-01T21:41:40.908Z,67.30
2022-09-01T21:46:16.400Z,67.60
2022-09-01T21:50:50.647Z,67.70
2022-09-01T21:55:25.237Z,67.90
2022-09-01T22:00:00.932Z,68.20
2022-09-01T22:04:37.087Z,68.40
2022-09-01T22:09:20.776Z,68.60
2022-09-01T22:13:57.834Z,68.80
2022-09-01T22:18:33.357Z,69.20
2022-09-01T22:23:07.508Z,69.20
2022-09-01T22:27:42.060Z,69.30
2022-09-01T22:32:16.779Z,69.60
2022-09-01T22:36:53.302Z,70.00
2022-09-01T22:41:29.819Z,70.10
2022-09-01T22:46:07.462Z,70.60
2022-09-01T22:50:42.033Z,71.20
2022-09-01T22:55:17.491Z,71.50
2022-09-01T22:59:51.731Z,71.60
2022-09-01T23:04:25.916Z,71.90
2022-09-01T23:09:02.515Z,72.30
2022-09-01T23:13:38.791Z,72.60
2022-09-01T23:18:15.897Z,72.90
2022-09-01T23:22:50.093Z,73.30
2022-09-01T23:27:26.491Z,73.40
2022-09-01T23:37:16.504Z,73.60
2022-09-01T23:41:54.144Z,73.70
2022-09-01T23:46:51.455Z,73.90
2022-09-01T23:51:30.919Z,74.10
2022-09-01T23:56:14.912Z,74.30
